Mora, Idaho
Current Conditions -  °F | °C
As of 6:53 AM on Thursday 27 Nov 2014 (Local Time) from KBOI Reporting Station
Overcast Overcast  
Wind Chill: 39°   Ceiling: 9500
Heat Index: 45°   Visibility: 10mi
Dew Point: 37°   Wind: 12mph
Humidity: 74%   Direction: 120°ESE
Pressure: 30.15"   Gusts: NA
Location:  43.5413°N, 116.27°W
Report Text: KBOI 271353Z 12010KT 10SM SCT070 OVC095 07/03 A3015 RMK AO2 SLP209 T00720028
Loading
Personal Weather Stations






























Interactive Weather Map New forecast layout! Learn more

10-Day Weather Forecast

Advertisements
Track Severe Weather on mobile